Estaca de Bares, Galicia

latitud = 43° 47' 14''N | longitud = 007° 41' 00''W
59 metros sobre el nivel del mar | datos mensuales

Fecha, hora, temperatura, viento dirección y velocidad, humedad y presión.

  • 21-01-2018 02:00:00 | 12.50°C | Oeste |46.00 km/h | 90.00% | 1016.80 hPa
  • 21-01-2018 01:00:00 | 12.60°C | Oeste |38.00 km/h | 89.00% | 1017.00 hPa
  • 21-01-2018 00:00:00 | 12.80°C | Oeste |46.00 km/h | 88.00% | 1016.40 hPa
  • 20-01-2018 23:00:00 | 12.90°C | Oeste |49.00 km/h | 87.00% | 1016.00 hPa
  • 20-01-2018 22:00:00 | 13.00°C | Oeste |55.00 km/h | 86.00% | 1015.90 hPa
  • 20-01-2018 21:00:00 | 13.10°C | Oeste |55.00 km/h | 86.00% | 1015.60 hPa
  • 20-01-2018 20:00:00 | 13.10°C | Oeste |51.00 km/h | 85.00% | 1015.50 hPa
  • 20-01-2018 19:00:00 | 13.10°C | Oeste |58.00 km/h | 85.00% | 1014.90 hPa
  • 20-01-2018 18:00:00 | 13.10°C | Oeste |64.00 km/h | 84.00% | 1013.70 hPa
  • 20-01-2018 17:00:00 | 13.40°C | Oeste |60.00 km/h | 82.00% | 1013.60 hPa
  • 20-01-2018 16:00:00 | 13.60°C | Oeste |59.00 km/h | 82.00% | 1013.10 hPa
  • 20-01-2018 15:00:00 | 13.50°C | Oeste |60.00 km/h | 83.00% | 1012.80 hPa
  • 20-01-2018 14:00:00 | 13.40°C | Oeste |64.00 km/h | 82.00% | 1013.00 hPa
  • 20-01-2018 13:00:00 | 12.90°C | Oeste |67.00 km/h | 83.00% | 1012.90 hPa
  • 20-01-2018 12:00:00 | 12.40°C | Oeste |63.00 km/h | 83.00% | 1013.50 hPa
  • 20-01-2018 11:00:00 | 12.00°C | Oeste |63.00 km/h | 84.00% | 1013.50 hPa
  • 20-01-2018 10:00:00 | 11.60°C | Oeste |62.00 km/h | 84.00% | 1013.20 hPa
  • 20-01-2018 09:00:00 | 11.10°C | Oeste |64.00 km/h | 84.00% | 1012.40 hPa
  • 20-01-2018 08:00:00 | 11.30°C | Oeste |63.00 km/h | 81.00% | 1012.30 hPa
  • 20-01-2018 07:00:00 | 10.90°C | Oeste |65.00 km/h | 81.00% | 1012.10 hPa
  • 20-01-2018 06:00:00 | 10.90°C | Oeste |63.00 km/h | 80.00% | 1012.10 hPa
  • 20-01-2018 05:00:00 | 11.10°C | Oeste |61.00 km/h | 77.00% | 1012.10 hPa
  • 20-01-2018 04:00:00 | 11.00°C | Oeste |60.00 km/h | 77.00% | 1012.60 hPa
  • 20-01-2018 03:00:00 | 10.80°C | Oeste |54.00 km/h | 77.00% | 1013.40 hPa